Time;durP1;ratioP1;P1;durP2;ratioP2;P2;SDS_P1;SDS_P2;PMS_P1;PMS_P2;Temp;Humidity;BMP_temperature;BMP_pressure;BME280_temperature;BME280_humidity;BME280_pressure;Samples;Min_cycle;Max_cycle;Signal;HPM_P1;HPM_P2
2022/03/28 01:46:09;;;;;;;55.00;22.92;;;;;;;5.73;72.39;95359.13;4993445;23;20043;-85
2022/03/28 01:48:34;;;;;;;47.40;21.35;;;;;;;5.73;73.90;95357.31;4929649;28;20364;-85
2022/03/28 01:51:00;;;;;;;57.30;23.50;;;;;;;5.54;77.13;95351.28;4960008;28;20121;-85
2022/03/28 01:53:28;;;;;;;56.47;23.08;;;;;;;5.47;75.80;95347.91;4943283;29;20126;-85
2022/03/28 01:55:53;;;;;;;54.83;22.40;;;;;;;5.41;80.24;95352.13;4939448;29;20039;-85
2022/03/28 01:58:19;;;;;;;55.05;24.10;;;;;;;5.50;79.89;95343.09;4944070;29;20444;-85
2022/03/28 02:00:45;;;;;;;56.20;25.10;;;;;;;5.70;80.91;95346.56;4960147;29;20046;-85
2022/03/28 02:03:10;;;;;;;51.65;22.85;;;;;;;5.45;83.38;95342.94;4944041;29;20039;-85
2022/03/28 02:05:36;;;;;;;55.75;23.48;;;;;;;5.51;86.93;95351.66;4928277;29;20352;-86
2022/03/28 02:08:02;;;;;;;51.60;23.27;;;;;;;5.57;83.73;95344.84;4944274;29;20039;-85
2022/03/28 02:10:27;;;;;;;58.53;23.48;;;;;;;5.39;81.00;95348.94;4935628;29;20459;-86
2022/03/28 02:12:53;;;;;;;59.53;24.13;;;;;;;5.30;82.00;95345.81;4944078;29;20065;-86
2022/03/28 02:15:20;;;;;;;60.85;24.27;;;;;;;5.32;86.60;95343.03;4927622;29;20039;-86
2022/03/28 02:17:45;;;;;;;60.88;26.10;;;;;;;5.34;85.96;95346.97;4943863;29;20043;-86
2022/03/28 02:20:12;;;;;;;59.42;24.08;;;;;;;5.31;87.24;95336.22;4943748;29;20093;-86
2022/03/28 02:22:39;;;;;;;53.58;23.63;;;;;;;5.44;88.61;95340.53;4960772;29;20175;-85
2022/03/28 02:25:06;;;;;;;59.42;24.85;;;;;;;5.43;88.81;95339.72;4927674;29;20144;-85
2022/03/28 02:27:32;;;;;;;64.88;25.15;;;;;;;5.28;92.02;95334.84;4927937;29;20035;-85
2022/03/28 02:29:58;;;;;;;59.05;25.33;;;;;;;5.29;91.40;95339.03;4943600;29;20043;-86
2022/03/28 02:32:23;;;;;;;53.63;22.85;;;;;;;5.32;91.55;95338.59;4943542;29;20035;-86
2022/03/28 02:34:49;;;;;;;63.42;24.67;;;;;;;5.20;93.30;95337.66;4927455;29;20042;-86
2022/03/28 02:37:14;;;;;;;61.97;25.60;;;;;;;5.14;92.38;95338.50;4943518;29;20042;-86
2022/03/28 02:39:40;;;;;;;67.10;25.48;;;;;;;5.17;89.96;95333.72;4927701;29;20040;-86
2022/03/28 02:42:05;;;;;;;62.45;25.05;;;;;;;5.19;91.10;95341.28;4927625;29;20033;-85
2022/03/28 02:44:31;;;;;;;61.17;25.70;;;;;;;5.27;89.57;95330.66;4943129;29;20137;-86
2022/03/28 02:46:56;;;;;;;58.50;24.50;;;;;;;5.22;88.46;95325.25;4943374;29;20050;-85
2022/03/28 02:49:22;;;;;;;56.05;24.48;;;;;;;5.20;87.80;95325.50;4927244;29;20042;-85
2022/03/28 02:51:47;;;;;;;56.67;23.30;;;;;;;5.20;87.79;95329.88;4943181;29;20118;-86
2022/03/28 02:54:13;;;;;;;58.40;24.70;;;;;;;5.15;90.21;95338.28;4927059;29;20070;-85
2022/03/28 02:56:39;;;;;;;54.28;22.75;;;;;;;5.09;91.17;95339.94;4943093;29;20046;-85
2022/03/28 02:59:04;;;;;;;61.83;24.92;;;;;;;4.98;92.06;95335.41;4943032;29;20039;-85
2022/03/28 03:01:30;;;;;;;62.67;24.35;;;;;;;5.15;89.08;95340.09;4927227;29;20130;-85
2022/03/28 03:03:55;;;;;;;64.45;24.50;;;;;;;5.31;84.88;95336.22;4942290;29;20043;-86
2022/03/28 03:06:21;;;;;;;60.63;25.33;;;;;;;5.35;83.45;95332.97;4942890;29;20480;-85
2022/03/28 03:08:46;;;;;;;57.55;24.80;;;;;;;5.43;82.73;95331.94;4942885;29;20436;-86
2022/03/28 03:11:12;;;;;;;56.28;23.75;;;;;;;5.62;81.33;95337.22;4942828;29;20086;-85
2022/03/28 03:13:38;;;;;;;61.13;24.20;;;;;;;5.54;80.31;95332.25;4943477;28;20047;-85
2022/03/28 03:16:04;;;;;;;60.20;25.20;;;;;;;5.46;80.94;95336.72;4957997;29;20095;-85
2022/03/28 03:18:30;;;;;;;59.25;23.95;;;;;;;5.49;77.33;95332.88;4961070;28;20038;-85
2022/03/28 03:20:55;;;;;;;56.15;22.65;;;;;;;5.61;74.19;95340.81;4961819;28;20333;-85
2022/03/28 03:23:21;;;;;;;55.42;22.88;;;;;;;5.82;70.22;95338.84;4945679;28;20031;-85
2022/03/28 03:25:46;;;;;;;55.13;22.92;;;;;;;5.70;70.74;95329.13;4961559;28;20047;-85
2022/03/28 03:28:12;;;;;;;52.97;22.40;;;;;;;5.59;71.10;95333.22;4945860;28;20043;-85
2022/03/28 03:30:37;;;;;;;46.55;19.77;;;;;;;5.50;65.75;95330.09;4945601;28;20126;-85
2022/03/28 03:33:03;;;;;;;46.55;19.48;;;;;;;5.34;66.98;95325.41;4961607;28;20090;-85
2022/03/28 03:35:29;;;;;;;49.65;21.13;;;;;;;5.23;65.60;95322.47;4961354;28;20038;-85
2022/03/28 03:37:55;;;;;;;54.20;21.30;;;;;;;5.11;67.90;95329.31;4961621;28;20483;-85
2022/03/28 03:40:20;;;;;;;49.10;19.45;;;;;;;5.08;62.95;95333.13;4978706;28;20038;-85
2022/03/28 03:42:46;;;;;;;43.20;17.67;;;;;;;5.17;61.20;95328.50;4961375;28;20039;-85
2022/03/28 03:45:11;;;;;;;36.50;17.02;;;;;;;5.16;61.48;95326.09;4945226;28;20465;-85
2022/03/28 03:47:37;;;;;;;39.03;17.15;;;;;;;5.32;60.32;95319.63;4944889;28;20073;-85
2022/03/28 03:50:04;;;;;;;43.33;17.73;;;;;;;5.29;59.39;95320.03;4961328;28;20444;-85
2022/03/28 03:52:30;;;;;;;43.85;18.02;;;;;;;5.31;58.63;95320.63;4961332;28;20042;-85
2022/03/28 03:54:55;;;;;;;45.42;17.75;;;;;;;5.32;59.40;95323.00;4960961;28;20034;-85
2022/03/28 03:57:21;;;;;;;43.17;18.48;;;;;;;5.11;59.53;95318.16;4961259;28;20039;-84
2022/03/28 03:59:46;;;;;;;36.05;17.50;;;;;;;5.14;58.94;95321.09;4961159;28;20359;-85
2022/03/28 04:02:12;;;;;;;47.33;18.30;;;;;;;5.24;58.80;95320.69;4961019;28;20062;-85
2022/03/28 04:04:37;;;;;;;38.10;16.58;;;;;;;5.19;57.97;95321.31;4945005;28;20118;-86
2022/03/28 04:07:03;;;;;;;40.67;17.60;;;;;;;5.22;57.69;95318.28;4959766;28;20503;-85
2022/03/28 04:09:29;;;;;;;39.25;17.48;;;;;;;5.20;59.14;95319.47;4960869;28;20046;-85
2022/03/28 04:11:54;;;;;;;42.03;18.15;;;;;;;5.19;58.62;95323.91;4978236;28;20416;-85
2022/03/28 04:14:21;;;;;;;38.88;17.42;;;;;;;5.18;57.54;95324.91;4960598;28;20038;-85
2022/03/28 04:16:47;;;;;;;41.15;16.48;;;;;;;5.23;56.74;95321.66;4961131;28;20049;-85
2022/03/28 04:19:13;;;;;;;41.42;17.77;;;;;;;5.02;58.07;95323.59;4978133;28;20035;-85
2022/03/28 04:21:38;;;;;;;38.60;19.00;;;;;;;4.99;57.84;95318.81;4960874;28;20039;-85
2022/03/28 04:24:04;;;;;;;42.75;18.50;;;;;;;4.99;59.02;95324.00;4941660;29;20097;-86
2022/03/28 04:26:30;;;;;;;39.92;17.52;;;;;;;4.98;58.22;95311.22;4941887;29;20039;-86
2022/03/28 04:28:55;;;;;;;37.03;17.00;;;;;;;4.88;58.61;95317.69;4941592;29;20432;-86
2022/03/28 04:31:22;;;;;;;40.28;15.68;;;;;;;4.79;58.41;95318.91;4941553;29;20097;-86
2022/03/28 04:33:47;;;;;;;36.03;16.02;;;;;;;4.84;58.23;95319.06;4925763;29;20035;-86
2022/03/28 04:36:13;;;;;;;35.10;15.80;;;;;;;4.83;57.92;95321.91;4941281;29;20035;-86
2022/03/28 04:38:38;;;;;;;39.78;15.63;;;;;;;4.72;57.58;95326.72;4941625;29;20035;-86
2022/03/28 04:41:04;;;;;;;38.50;16.15;;;;;;;4.82;58.09;95326.28;4958449;29;20035;-85
2022/03/28 04:43:30;;;;;;;35.60;15.00;;;;;;;4.92;56.21;95326.63;4941323;29;20039;-86
2022/03/28 04:45:55;;;;;;;39.28;18.00;;;;;;;4.98;56.48;95326.78;4958374;29;20046;-86
2022/03/28 04:48:20;;;;;;;41.72;18.20;;;;;;;5.02;55.97;95326.19;4925749;29;20066;-86
2022/03/28 04:50:46;;;;;;;45.80;17.80;;;;;;;5.10;55.04;95330.34;4941377;29;20173;-85
2022/03/28 04:53:12;;;;;;;44.92;17.75;;;;;;;5.06;55.95;95332.53;4941392;29;20083;-85
2022/03/28 04:55:38;;;;;;;43.97;17.13;;;;;;;4.84;57.45;95332.06;4941109;29;20073;-86
2022/03/28 04:58:04;;;;;;;38.42;17.15;;;;;;;4.80;56.88;95325.69;4925594;29;20035;-85
2022/03/28 05:00:29;;;;;;;33.35;14.82;;;;;;;5.03;54.41;95332.19;4945009;29;20039;-86
2022/03/28 05:02:57;;;;;;;31.58;13.40;;;;;;;5.27;51.97;95328.03;4945014;29;20524;-86
2022/03/28 05:05:22;;;;;;;28.30;13.18;;;;;;;5.34;50.85;95336.59;4944790;29;20043;-86
2022/03/28 05:07:48;;;;;;;35.65;13.60;;;;;;;5.23;50.34;95327.66;4944999;29;20039;-85
2022/03/28 05:10:13;;;;;;;29.83;12.68;;;;;;;5.10;50.22;95330.34;4945020;29;20091;-86
2022/03/28 05:12:41;;;;;;;30.30;12.48;;;;;;;5.02;51.26;95335.75;4945174;29;20168;-84
2022/03/28 05:15:07;;;;;;;27.45;12.18;;;;;;;5.08;49.76;95335.72;4944576;29;20040;-84
2022/03/28 05:17:32;;;;;;;31.75;12.77;;;;;;;5.05;49.31;95333.56;4944880;29;20036;-84
2022/03/28 05:19:59;;;;;;;29.80;13.20;;;;;;;5.11;50.61;95336.34;4945150;29;20057;-84
2022/03/28 05:22:24;;;;;;;29.65;12.07;;;;;;;5.18;49.24;95332.69;4944758;29;20027;-84
2022/03/28 05:24:51;;;;;;;29.98;12.02;;;;;;;5.17;49.71;95333.72;4961567;29;20039;-84
2022/03/28 05:27:17;;;;;;;27.58;12.68;;;;;;;5.30;48.84;95324.22;4928707;29;20043;-84
2022/03/28 05:29:43;;;;;;;25.70;11.90;;;;;;;5.43;46.99;95329.31;4944652;29;20458;-85
2022/03/28 05:32:09;;;;;;;24.90;11.95;;;;;;;5.70;46.64;95331.72;4944622;29;20329;-85
2022/03/28 05:34:35;;;;;;;31.58;11.57;;;;;;;5.60;47.17;95336.63;4944490;29;20130;-85
2022/03/28 05:37:01;;;;;;;26.42;11.88;;;;;;;5.83;46.57;95341.25;4944824;29;20119;-85
2022/03/28 05:39:28;;;;;;;26.42;12.15;;;;;;;5.72;46.83;95337.50;4944425;29;20150;-85
2022/03/28 05:41:53;;;;;;;24.63;11.55;;;;;;;5.84;45.92;95332.44;4944981;29;20027;-85
2022/03/28 05:44:20;;;;;;;28.02;12.07;;;;;;;5.89;46.06;95334.41;4943973;29;20184;-85
2022/03/28 05:46:48;;;;;;;23.40;11.85;;;;;;;5.84;46.49;95342.03;4944309;29;20090;-85
2022/03/28 05:49:14;;;;;;;24.63;11.35;;;;;;;5.78;46.60;95336.69;4944633;29;20364;-85
2022/03/28 05:51:39;;;;;;;24.52;11.38;;;;;;;5.69;46.71;95330.16;4944668;29;20028;-85
2022/03/28 05:54:05;;;;;;;26.80;12.30;;;;;;;5.72;46.42;95327.13;4960955;29;20042;-85
2022/03/28 05:56:30;;;;;;;25.35;11.88;;;;;;;5.73;47.13;95336.50;4944157;29;20031;-85
2022/03/28 05:58:56;;;;;;;27.33;11.77;;;;;;;5.89;46.39;95337.00;4961266;29;20116;-85
2022/03/28 06:01:22;;;;;;;27.33;11.38;;;;;;;5.75;48.67;95339.72;4943985;29;20462;-87
2022/03/28 06:03:47;;;;;;;35.65;11.75;;;;;;;5.73;48.92;95331.31;4944289;29;20109;-86
2022/03/28 06:06:13;;;;;;;30.67;12.38;;;;;;;5.78;47.66;95334.09;4944071;29;20043;-86
2022/03/28 06:08:38;;;;;;;26.63;11.70;;;;;;;5.68;48.70;95336.34;4943962;29;20046;-86
2022/03/28 06:11:04;;;;;;;24.13;11.73;;;;;;;5.72;46.73;95334.13;4927904;29;20054;-86
2022/03/28 06:13:33;;;;;;;28.38;12.57;;;;;;;5.84;46.00;95334.22;4943569;29;20086;-86
2022/03/28 06:15:59;;;;;;;25.08;11.95;;;;;;;5.97;46.13;95333.34;4943876;29;20381;-86
2022/03/28 06:18:25;;;;;;;31.25;12.15;;;;;;;6.13;45.95;95327.63;4939717;28;20081;-86
2022/03/28 06:20:50;;;;;;;25.45;10.90;;;;;;;6.42;45.30;95332.31;4963019;28;20420;-86
2022/03/28 06:23:16;;;;;;;25.00;11.48;;;;;;;6.54;44.94;95337.63;4947085;28;20066;-86
2022/03/28 06:25:41;;;;;;;30.33;11.88;;;;;;;6.44;45.42;95331.09;4962541;28;20111;-85
2022/03/28 06:28:07;;;;;;;27.80;11.60;;;;;;;6.74;45.10;95332.97;4961387;28;20089;-85
2022/03/28 06:30:32;;;;;;;27.48;12.40;;;;;;;6.91;44.77;95334.97;4962832;28;20367;-85
2022/03/28 06:32:58;;;;;;;29.38;12.05;;;;;;;6.96;43.48;95327.31;4980324;28;20038;-85
2022/03/28 06:35:23;;;;;;;29.95;12.50;;;;;;;6.81;44.53;95332.09;4946572;28;20129;-85
2022/03/28 06:37:52;;;;;;;39.08;16.20;;;;;;;6.86;46.93;95337.44;4946836;28;20039;-85
2022/03/28 06:40:17;;;;;;;34.08;14.90;;;;;;;6.87;47.42;95336.44;4962995;28;20047;-87
2022/03/28 06:42:43;;;;;;;29.77;13.35;;;;;;;7.05;45.42;95335.59;4947812;28;20038;-84
2022/03/28 06:45:10;;;;;;;26.38;12.25;;;;;;;7.07;46.61;95336.97;4946195;28;20567;-84
2022/03/28 06:47:36;;;;;;;31.20;12.65;;;;;;;7.17;47.42;95335.66;4962674;28;20038;-84
2022/03/28 06:50:03;;;;;;;23.25;11.65;;;;;;;7.18;48.19;95342.44;4962420;28;20046;-84
2022/03/28 06:52:28;;;;;;;23.55;11.35;;;;;;;7.16;47.90;95345.25;4962355;28;20034;-84
2022/03/28 06:54:54;;;;;;;23.83;12.15;;;;;;;7.24;46.96;95345.97;4946137;28;20093;-84
2022/03/28 06:57:20;;;;;;;24.42;11.88;;;;;;;7.39;45.95;95335.13;4962475;28;20049;-83
2022/03/28 06:59:46;;;;;;;26.63;11.68;;;;;;;7.50;47.20;95347.41;4979487;28;20049;-84
2022/03/28 07:02:11;;;;;;;27.02;11.43;;;;;;;7.64;48.08;95343.59;4946145;28;20047;-84
2022/03/28 07:04:36;;;;;;;26.25;12.20;;;;;;;7.76;48.50;95348.84;4945726;28;20064;-84
2022/03/28 07:07:02;;;;;;;26.67;12.10;;;;;;;7.89;50.26;95340.00;4962078;28;20125;-84
2022/03/28 07:09:27;;;;;;;25.58;11.73;;;;;;;8.01;48.40;95340.00;4962009;28;20043;-84
2022/03/28 07:11:53;;;;;;;24.25;11.50;;;;;;;8.15;46.01;95334.56;4962036;28;20066;-84
2022/03/28 07:14:19;;;;;;;22.58;10.80;;;;;;;8.35;48.31;95335.00;4978820;28;20047;-84
2022/03/28 07:16:47;;;;;;;21.65;10.88;;;;;;;8.49;46.77;95334.78;4979193;28;20341;-84
2022/03/28 07:19:13;;;;;;;26.75;10.73;;;;;;;8.65;42.10;95332.50;4961922;28;20077;-84
2022/03/28 07:21:41;;;;;;;20.52;10.55;;;;;;;8.73;48.21;95332.13;4961212;28;20061;-84
2022/03/28 07:24:06;;;;;;;25.30;10.38;;;;;;;8.85;44.93;95332.88;4961450;28;20407;-84
2022/03/28 07:26:32;;;;;;;21.20;10.55;;;;;;;8.95;42.53;95332.28;4979012;28;20042;-84
2022/03/28 07:29:02;;;;;;;23.55;11.05;;;;;;;9.14;42.54;95330.28;4961864;28;20585;-84
2022/03/28 07:31:27;;;;;;;25.05;12.43;;;;;;;9.27;45.88;95328.41;4962325;28;20046;-84
2022/03/28 07:34:29;;;;;;;27.15;12.68;;;;;;;9.24;48.55;95326.28;4945115;28;20042;-84
2022/03/28 07:36:38;;;;;;;24.63;12.73;;;;;;;9.34;45.35;95327.25;4977367;28;20129;-84
2022/03/28 07:39:04;;;;;;;25.90;13.02;;;;;;;9.46;48.78;95332.41;4980851;28;20077;-84
2022/03/28 07:41:29;;;;;;;26.35;12.95;;;;;;;9.55;49.89;95321.56;4965097;28;20034;-84
2022/03/28 07:43:54;;;;;;;23.67;11.98;;;;;;;9.58;48.91;95323.69;4964466;28;20447;-84
2022/03/28 07:46:21;;;;;;;25.10;13.13;;;;;;;9.67;47.90;95324.91;4965013;28;20049;-84
2022/03/28 07:48:46;;;;;;;29.20;12.43;;;;;;;9.78;47.30;95322.47;4980856;28;20034;-84
2022/03/28 07:51:12;;;;;;;30.08;14.20;;;;;;;9.74;49.60;95325.53;4980645;28;20037;-84
2022/03/28 07:53:38;;;;;;;28.40;13.10;;;;;;;9.87;48.31;95321.00;4998103;28;20034;-84
2022/03/28 07:56:04;;;;;;;23.45;11.93;;;;;;;9.96;43.83;95332.66;4980756;28;20347;-84
2022/03/28 07:58:29;;;;;;;24.17;11.82;;;;;;;10.16;43.15;95323.53;4964570;28;20038;-84
2022/03/28 08:00:55;;;;;;;32.42;12.07;;;;;;;10.23;41.92;95323.34;4980668;28;20034;-84
2022/03/28 08:03:21;;;;;;;26.02;12.18;;;;;;;10.36;42.01;95323.00;4964402;28;20035;-84
2022/03/28 08:05:46;;;;;;;24.80;11.38;;;;;;;10.43;43.06;95317.63;4980055;28;20042;-84
2022/03/28 08:08:12;;;;;;;21.83;11.25;;;;;;;10.59;42.53;95321.25;4980434;28;20093;-84
2022/03/28 08:10:37;;;;;;;23.00;11.52;;;;;;;10.70;41.98;95312.47;4964683;28;20038;-84
2022/03/28 08:13:03;;;;;;;23.77;12.32;;;;;;;10.75;44.39;95316.97;4997948;28;20041;-85
2022/03/28 08:15:30;;;;;;;25.95;11.43;;;;;;;10.86;44.82;95316.03;4963854;28;20054;-85
2022/03/28 08:17:58;;;;;;;23.90;11.90;;;;;;;10.96;44.75;95322.44;4980449;28;20038;-84
2022/03/28 08:20:24;;;;;;;29.15;12.63;;;;;;;10.91;45.93;95325.81;4980099;28;20038;-85
2022/03/28 08:22:49;;;;;;;24.50;12.05;;;;;;;11.14;43.41;95318.72;4980377;28;20399;-84
2022/03/28 08:25:16;;;;;;;27.17;11.75;;;;;;;11.21;42.43;95327.16;4979700;28;20514;-84
2022/03/28 08:27:42;;;;;;;22.27;11.43;;;;;;;11.35;42.54;95327.56;4997360;28;20439;-84
2022/03/28 08:30:08;;;;;;;23.55;11.20;;;;;;;11.39;41.12;95330.47;4964164;28;20092;-84
2022/03/28 08:32:33;;;;;;;25.58;11.60;;;;;;;11.52;39.92;95319.56;4979953;28;20042;-84
2022/03/28 08:34:59;;;;;;;22.30;10.88;;;;;;;11.63;38.11;95315.22;4997518;28;20038;-85
2022/03/28 08:37:27;;;;;;;27.00;11.60;;;;;;;11.77;40.40;95315.59;4979962;28;20038;-84
2022/03/28 08:39:55;;;;;;;19.77;10.32;;;;;;;11.91;39.66;95317.78;4964361;28;20034;-84
2022/03/28 08:42:22;;;;;;;25.45;11.40;;;;;;;12.04;38.87;95319.22;4980059;28;20045;-84
2022/03/28 08:44:50;;;;;;;19.98;10.32;;;;;;;12.24;37.87;95311.47;4979373;28;20053;-85
2022/03/28 08:47:22;;;;;;;20.42;11.02;;;;;;;12.35;37.52;95304.44;4964262;28;20034;-84
2022/03/28 08:49:48;;;;;;;21.85;11.25;;;;;;;12.48;32.97;95308.44;4963719;28;20097;-84
2022/03/28 08:52:16;;;;;;;21.17;9.93;;;;;;;12.50;32.67;95306.34;4979814;28;20034;-84
2022/03/28 08:54:42;;;;;;;22.20;11.20;;;;;;;12.52;33.99;95311.34;4979611;28;20359;-84
2022/03/28 08:57:07;;;;;;;21.15;10.23;;;;;;;12.73;30.56;95318.28;4963594;28;20501;-84
2022/03/28 08:59:33;;;;;;;20.33;10.38;;;;;;;12.75;31.86;95310.13;4997144;28;20076;-84
2022/03/28 09:01:58;;;;;;;20.77;11.05;;;;;;;12.73;30.67;95306.97;4963869;28;20105;-84
2022/03/28 09:04:24;;;;;;;21.83;10.70;;;;;;;12.90;30.28;95300.69;4996589;28;20046;-85
2022/03/28 09:06:49;;;;;;;17.27;10.70;;;;;;;12.99;30.67;95299.97;4979673;28;20066;-85
2022/03/28 09:09:32;;;;;;;20.10;9.82;;;;;;;13.18;31.57;95302.09;4979697;28;20046;-84
2022/03/28 09:12:11;;;;;;;17.85;10.38;;;;;;;13.31;32.45;95298.16;4980170;28;20076;-84
2022/03/28 09:14:40;;;;;;;23.83;10.45;;;;;;;13.15;31.35;95298.13;4979682;28;20045;-85
2022/03/28 09:17:16;;;;;;;20.02;11.07;;;;;;;13.38;29.86;95298.72;4964374;28;20450;-85
2022/03/28 09:19:45;;;;;;;16.73;9.57;;;;;;;13.62;29.53;95305.34;4996984;28;20039;-84
2022/03/28 09:22:13;;;;;;;23.85;10.65;;;;;;;13.47;32.04;95299.00;4979964;28;20073;-84
2022/03/28 09:24:39;;;;;;;21.00;9.77;;;;;;;13.62;29.86;95305.34;4963042;28;20105;-84
2022/03/28 09:27:15;;;;;;;21.80;10.13;;;;;;;13.40;30.48;95293.16;4979579;28;20042;-84
2022/03/28 09:29:53;;;;;;;23.52;10.57;;;;;;;13.60;31.37;95296.91;4979824;28;20065;-85
2022/03/28 09:32:21;;;;;;;27.13;10.45;;;;;;;13.60;32.46;95304.81;4979896;28;20446;-85
2022/03/28 09:35:08;;;;;;;21.35;10.10;;;;;;;13.62;32.41;95300.84;4962893;28;20077;-84
2022/03/28 09:38:02;;;;;;;19.55;10.50;;;;;;;13.54;32.49;95296.13;4979515;28;20049;-85
2022/03/28 09:40:33;;;;;;;27.10;10.10;;;;;;;13.80;32.24;95290.84;4970853;28;20074;-85
2022/03/28 09:42:59;;;;;;;18.45;9.82;;;;;;;13.67;31.14;95284.25;4959610;28;20134;-85
2022/03/28 09:45:27;;;;;;;21.65;10.45;;;;;;;13.95;32.02;95284.75;4961472;28;20047;-85
2022/03/28 09:48:01;;;;;;;23.25;10.10;;;;;;;14.17;31.57;95283.69;4979736;28;20045;-85
2022/03/28 09:50:27;;;;;;;;;;;;;;;14.13;30.04;95276.31;4964264;28;20034;-85
2022/03/28 09:52:53;;;;;;;19.42;9.88;;;;;;;14.13;30.38;95281.59;4963669;28;19964;-85
2022/03/28 09:55:18;;;;;;;19.05;10.75;;;;;;;14.30;28.96;95272.59;4979517;28;20046;-85
2022/03/28 09:57:44;;;;;;;17.92;9.90;;;;;;;14.24;28.32;95273.63;4980693;28;20039;-85
2022/03/28 10:00:15;;;;;;;21.95;10.55;;;;;;;14.30;30.54;95261.25;4963396;28;20122;-85
2022/03/28 10:02:41;;;;;;;21.08;9.18;;;;;;;14.32;30.91;95264.38;4980581;28;20137;-85
2022/03/28 10:05:07;;;;;;;20.67;10.63;;;;;;;14.22;30.72;95241.50;4963607;28;20125;-85
2022/03/28 10:07:34;;;;;;;19.40;11.07;;;;;;;14.40;31.73;95250.66;4963254;28;20039;-85
2022/03/28 10:10:00;;;;;;;17.98;10.70;;;;;;;14.84;33.59;95251.81;5002280;28;20366;-85
2022/03/28 10:12:27;;;;;;;22.65;9.85;;;;;;;14.77;29.17;95252.09;4985681;28;20033;-85
2022/03/28 10:14:57;;;;;;;21.30;11.15;;;;;;;14.49;32.95;95238.50;5001862;28;20041;-85
2022/03/28 10:17:24;;;;;;;18.75;10.23;;;;;;;14.41;31.67;95241.69;4986299;28;20443;-85
2022/03/28 10:19:50;;;;;;;20.05;10.60;;;;;;;14.76;33.69;95233.94;5001999;28;20479;-85
2022/03/28 10:22:17;;;;;;;24.10;11.32;;;;;;;14.98;32.13;95228.25;4979483;28;20180;-85
2022/03/28 10:24:44;;;;;;;22.42;11.43;;;;;;;15.10;30.82;95225.28;5001647;28;20128;-85
2022/03/28 10:27:10;;;;;;;28.90;11.95;;;;;;;15.41;29.17;95228.47;5001684;28;20048;-85
2022/03/28 10:29:38;;;;;;;28.75;12.32;;;;;;;15.41;30.17;95228.47;5001596;28;20128;-84
2022/03/28 10:32:15;;;;;;;24.10;11.85;;;;;;;15.26;28.98;95233.88;4985648;28;20347;-85
2022/03/28 10:35:00;;;;;;;25.48;12.82;;;;;;;15.27;29.44;95217.75;4985436;28;20038;-85
2022/03/28 10:37:40;;;;;;;22.38;11.80;;;;;;;15.21;28.55;95216.22;5001910;28;20033;-85
2022/03/28 10:40:11;;;;;;;29.25;12.52;;;;;;;15.35;28.66;95218.25;4997161;28;20034;-85
2022/03/28 10:42:40;;;;;;;24.80;11.75;;;;;;;15.57;29.71;95212.50;4999130;28;20042;-85
2022/03/28 10:45:18;;;;;;;21.80;12.18;;;;;;;15.69;28.86;95199.72;4981110;28;20554;-85
2022/03/28 10:47:48;;;;;;;22.23;11.50;;;;;;;15.82;31.46;95203.53;4983498;28;20041;-85
2022/03/28 10:50:37;;;;;;;26.25;12.40;;;;;;;15.83;29.94;95183.22;4981666;28;20045;-85
2022/03/28 10:53:19;;;;;;;21.80;11.73;;;;;;;15.87;29.21;95194.00;4981828;28;20070;-85
2022/03/28 10:55:53;;;;;;;23.75;11.70;;;;;;;15.81;29.03;95191.41;4998347;28;20360;-85
2022/03/28 10:58:48;;;;;;;23.58;12.70;;;;;;;15.85;29.61;95183.72;4965346;28;20074;-85
2022/03/28 11:01:16;;;;;;;21.88;11.82;;;;;;;15.88;29.70;95172.56;4998566;28;20096;-85
2022/03/28 11:03:43;;;;;;;23.35;12.45;;;;;;;16.07;29.64;95177.94;4981352;28;20042;-86
2022/03/28 11:06:09;;;;;;;22.20;12.10;;;;;;;15.86;29.05;95172.06;4981523;28;20046;-85
2022/03/28 11:08:36;;;;;;;25.88;12.32;;;;;;;16.07;30.25;95166.59;4981384;28;20049;-85
2022/03/28 11:11:20;;;;;;;24.42;12.80;;;;;;;15.84;29.72;95164.41;4965458;28;20465;-85
2022/03/28 11:14:09;;;;;;;22.85;12.57;;;;;;;16.14;30.25;95161.75;4981326;28;20045;-85
2022/03/28 11:16:44;;;;;;;27.23;13.10;;;;;;;16.23;30.14;95154.78;4981318;28;20088;-85
2022/03/28 11:19:33;;;;;;;24.48;13.05;;;;;;;16.10;35.37;95150.19;4981682;28;20046;-85
2022/03/28 11:22:04;;;;;;;31.75;13.60;;;;;;;16.24;30.21;95151.06;4981894;28;20042;-85
2022/03/28 11:25:14;;;;;;;29.40;13.93;;;;;;;16.28;31.66;95145.19;4981430;28;20042;-85
2022/03/28 11:27:40;;;;;;;26.88;14.32;;;;;;;15.99;29.92;95146.06;4903641;29;20121;-85
2022/03/28 11:30:11;;;;;;;25.67;13.95;;;;;;;16.04;31.74;95143.34;4970108;28;20063;-85
2022/03/28 11:32:38;;;;;;;28.25;14.15;;;;;;;16.34;32.45;95130.81;4965660;28;20038;-85
2022/03/28 11:35:05;;;;;;;28.85;15.13;;;;;;;16.42;32.03;95132.84;4980852;28;20361;-85
2022/03/28 11:37:30;;;;;;;27.05;15.40;;;;;;;16.62;31.89;95131.78;4965269;28;20511;-85
2022/03/28 11:39:58;;;;;;;38.05;16.40;;;;;;;16.54;32.48;95135.06;4980888;28;20177;-85
2022/03/28 11:42:26;;;;;;;32.13;15.75;;;;;;;16.25;32.46;95128.84;4964591;28;20034;-85
2022/03/28 11:44:52;;;;;;;31.35;16.75;;;;;;;16.64;36.82;95123.53;4980550;28;20042;-85
2022/03/28 11:47:18;;;;;;;32.42;16.27;;;;;;;16.82;32.79;95111.38;4980600;28;20038;-85
2022/03/28 11:50:10;;;;;;;32.30;16.02;;;;;;;16.42;32.48;95118.81;4997979;28;20069;-85
2022/03/28 11:52:36;;;;;;;33.13;16.40;;;;;;;16.43;33.37;95113.25;4994159;28;20071;-85
2022/03/28 11:55:03;;;;;;;34.53;17.15;;;;;;;16.03;32.80;95115.34;4997836;28;20050;-85
2022/03/28 12:00:25;;;;;;;33.30;15.65;;;;;;;16.17;32.45;95112.81;4983126;28;20057;-85
2022/03/28 12:02:51;;;;;;;35.25;16.23;;;;;;;16.66;34.05;95108.19;4980372;28;20129;-85
2022/03/28 12:05:38;;;;;;;30.33;16.25;;;;;;;16.68;33.21;95106.03;4980340;28;20509;-85
2022/03/28 12:08:21;;;;;;;39.05;17.83;;;;;;;16.46;33.21;95104.75;4977931;28;20069;-84
2022/03/28 12:10:51;;;;;;;40.85;17.90;;;;;;;16.43;34.48;95096.63;4961320;28;20395;-85
2022/03/28 12:13:19;;;;;;;35.45;17.33;;;;;;;16.50;34.05;95092.53;4960959;28;20031;-86
2022/03/28 12:15:47;;;;;;;40.33;17.67;;;;;;;16.57;33.79;95086.88;4945241;28;20440;-86
2022/03/28 12:18:15;;;;;;;31.98;17.35;;;;;;;16.63;34.72;95084.94;4978380;28;20129;-86
2022/03/28 12:20:43;;;;;;;37.42;18.17;;;;;;;16.93;38.50;95080.25;4960890;28;20043;-85
2022/03/28 12:23:12;;;;;;;42.50;19.42;;;;;;;16.61;34.75;95079.94;4960857;28;20066;-85
2022/03/28 12:25:50;;;;;;;38.13;19.15;;;;;;;17.02;38.63;95073.22;4960724;28;20043;-86
2022/03/28 12:28:30;;;;;;;41.20;19.65;;;;;;;17.16;34.30;95073.28;4960773;28;20046;-86
2022/03/28 12:30:58;;;;;;;45.55;20.42;;;;;;;17.20;35.86;95070.81;4961097;28;20042;-86
2022/03/28 12:33:28;;;;;;;41.92;18.50;;;;;;;17.35;34.50;95069.75;4944789;28;20034;-85
2022/03/28 12:36:02;;;;;;;44.30;20.40;;;;;;;17.37;35.14;95068.41;4960676;28;20082;-85
2022/03/28 12:38:33;;;;;;;40.55;19.15;;;;;;;17.41;40.96;95055.34;4960636;28;20186;-86
2022/03/28 12:41:02;;;;;;;36.22;20.00;;;;;;;16.84;33.47;95056.28;4945116;28;20030;-85
2022/03/28 12:43:29;;;;;;;37.92;18.65;;;;;;;16.50;34.74;95044.94;4960577;28;20057;-86
2022/03/28 12:45:57;;;;;;;39.03;18.58;;;;;;;16.48;33.91;95041.75;4945005;28;20341;-85
2022/03/28 12:48:22;;;;;;;40.50;18.55;;;;;;;16.76;34.34;95039.22;4944814;28;20048;-85
2022/03/28 12:50:55;;;;;;;39.55;19.27;;;;;;;16.72;34.39;95021.59;4977628;28;20430;-85
2022/03/28 12:53:25;;;;;;;37.70;18.60;;;;;;;16.89;34.49;95028.97;4960654;28;20074;-85
2022/03/28 12:55:50;;;;;;;37.47;19.20;;;;;;;16.99;34.99;95020.88;4960484;28;20274;-85
2022/03/28 12:58:16;;;;;;;39.03;19.75;;;;;;;17.03;34.58;95031.69;4978026;28;20125;-85
2022/03/28 13:00:42;;;;;;;42.83;20.45;;;;;;;16.62;34.89;95023.31;4944591;28;20535;-86
2022/03/28 13:03:08;;;;;;;43.83;20.42;;;;;;;16.30;34.63;95022.22;4944536;28;20066;-86
2022/03/28 13:05:34;;;;;;;46.53;19.27;;;;;;;16.66;34.70;95016.38;4960304;28;20051;-86
2022/03/28 13:08:13;;;;;;;41.25;20.30;;;;;;;16.84;35.57;95018.47;4996238;28;20050;-86
2022/03/28 13:10:41;;;;;;;47.72;22.65;;;;;;;16.82;35.62;95002.88;4972187;28;20101;-86
2022/03/28 13:13:07;;;;;;;48.92;22.95;;;;;;;17.24;36.30;95005.63;4991576;28;20038;-86